Dati Storici

Data ora Umidita' aria (%) Temperatura aria (°C) Rad globale (W/m²) Gonioanemometro (°) Tacoanemometro (m/s) Pioggia (mm)
27-06-2020 23:30 91.4 % 24.099 83.429 -0.029 0 0
27-06-2020 23:20 89.6 % 24.353 10.879 1.006 0 0
27-06-2020 23:10 87 % 24.727 3.37 -0.029 0 0
27-06-2020 23:00 86.3 % 25.185 14.496 -0.029 0 0
27-06-2020 22:50 84.7 % 25.409 156.705 -0.031 0 0
27-06-2020 22:40 84.1 % 25.625 155.002 0.229 0 0
27-06-2020 22:30 84.2 % 25.598 203.095 -0.031 0 0
27-06-2020 22:20 85.5 % 25.477 193.704 -0.031 0 0
27-06-2020 22:10 87.5 % 25.413 98.19 0.43 0 0
27-06-2020 22:00 87.9 % 25.307 166.24 -0.03 0 0
27-06-2020 21:50 86.7 % 25.321 113.989 -0.03 0 0
27-06-2020 21:40 85 % 25.288 80.211 -0.031 0 0
27-06-2020 21:30 84.5 % 25.264 104.415 0.146 0 0
27-06-2020 21:20 85.3 % 25.165 79.938 -0.032 0 0
27-06-2020 21:10 86 % 25.075 60.574 -0.032 0 0
27-06-2020 21:00 84.2 % 25.523 133.346 -0.034 0 0
27-06-2020 20:50 82.2 % 25.811 117.193 -0.033 0 0
27-06-2020 20:40 85.3 % 25.563 127.171 -0.032 0 0
27-06-2020 20:30 85 % 25.59 142.685 -0.033 0 0
27-06-2020 20:20 83.7 % 25.614 109.394 -0.032 0 0

I dati sono presentati in modo automatico a scopo informativo. In seguito a verifica i dati possono subire modifiche o essere invalidati e non riportati negli archivi definitivi.